createdAt,value
2022-12-01T00:01:07.921Z,6.80
2022-12-01T00:03:34.816Z,6.83
2022-12-01T00:06:03.399Z,6.94
2022-12-01T00:08:31.023Z,6.82
2022-12-01T00:11:04.823Z,7.01
2022-12-01T00:13:31.741Z,7.00
2022-12-01T00:15:58.118Z,7.09
2022-12-01T00:18:24.580Z,7.02
2022-12-01T00:20:55.895Z,6.97
2022-12-01T00:23:23.167Z,6.94
2022-12-01T00:25:49.611Z,7.01
2022-12-01T00:28:15.960Z,7.09
2022-12-01T00:30:42.394Z,7.08
2022-12-01T00:33:08.719Z,7.07
2022-12-01T00:35:35.165Z,7.01
2022-12-01T00:38:01.533Z,7.10
2022-12-01T00:40:27.874Z,6.97
2022-12-01T00:42:54.195Z,6.99
2022-12-01T00:45:20.532Z,6.99
2022-12-01T00:47:46.871Z,7.01
2022-12-01T00:50:13.255Z,7.08
2022-12-01T00:52:39.679Z,7.13
2022-12-01T00:55:06.413Z,6.99
2022-12-01T00:57:32.822Z,7.08
2022-12-01T00:59:59.362Z,7.10
2022-12-01T01:02:28.300Z,7.04
2022-12-01T01:04:54.748Z,7.00
2022-12-01T01:07:21.800Z,6.96
2022-12-01T01:09:48.477Z,6.94
2022-12-01T01:12:14.947Z,6.85
2022-12-01T01:14:41.501Z,6.80
2022-12-01T01:17:07.897Z,6.83
2022-12-01T01:19:34.295Z,6.94
2022-12-01T01:22:00.618Z,6.87
2022-12-01T01:24:27.022Z,6.74
2022-12-01T01:26:55.353Z,6.68
2022-12-01T01:29:21.694Z,6.55
2022-12-01T01:31:48.203Z,6.53
2022-12-01T01:34:14.628Z,6.47
2022-12-01T01:36:40.972Z,6.58
2022-12-01T01:39:07.358Z,6.56
2022-12-01T01:41:33.690Z,6.53
2022-12-01T01:44:04.203Z,6.50
2022-12-01T01:46:32.835Z,6.58
2022-12-01T01:49:02.798Z,6.55
2022-12-01T01:51:41.320Z,6.65
2022-12-01T01:54:47.659Z,6.63
2022-12-01T01:57:17.297Z,6.67
2022-12-01T01:59:50.188Z,6.60
2022-12-01T02:02:17.419Z,6.72
2022-12-01T02:04:49.797Z,6.74
2022-12-01T02:07:18.604Z,6.67
2022-12-01T02:09:45.470Z,6.69
2022-12-01T02:12:38.422Z,6.76
2022-12-01T02:15:23.198Z,6.71
2022-12-01T02:18:13.594Z,6.70
2022-12-01T02:21:06.792Z,6.59
2022-12-01T02:23:45.384Z,6.42
2022-12-01T02:26:40.613Z,6.35
2022-12-01T02:29:35.454Z,6.34
2022-12-01T02:32:24.878Z,6.47
2022-12-01T02:35:03.233Z,6.46
2022-12-01T02:37:39.862Z,6.39
2022-12-01T02:40:24.703Z,6.17
2022-12-01T02:43:07.623Z,6.07
2022-12-01T02:45:40.053Z,6.07
2022-12-01T02:48:14.138Z,6.22
2022-12-01T02:50:41.583Z,6.33
2022-12-01T02:53:11.140Z,6.41
2022-12-01T02:55:46.493Z,6.61
2022-12-01T02:58:14.745Z,6.56
2022-12-01T03:00:48.919Z,6.52
2022-12-01T03:03:40.316Z,6.48
2022-12-01T03:06:10.578Z,6.44
2022-12-01T03:09:09.556Z,6.31
2022-12-01T03:11:46.616Z,6.43
2022-12-01T03:14:26.404Z,6.46
2022-12-01T03:16:54.460Z,6.47
2022-12-01T03:19:29.451Z,6.36
2022-12-01T03:22:00.223Z,6.31
2022-12-01T03:24:29.337Z,6.26
2022-12-01T03:26:58.699Z,6.20
2022-12-01T03:29:30.791Z,6.28
2022-12-01T03:32:03.088Z,6.44
2022-12-01T03:34:40.742Z,6.41
2022-12-01T03:37:21.691Z,6.40
2022-12-01T03:39:50.627Z,6.37
2022-12-01T03:42:23.649Z,6.36
2022-12-01T03:44:55.396Z,6.35
2022-12-01T03:47:25.658Z,6.33
2022-12-01T03:49:53.793Z,6.45
2022-12-01T03:52:42.145Z,6.38
2022-12-01T03:55:13.902Z,6.36
2022-12-01T03:57:53.990Z,6.27
2022-12-01T04:00:21.209Z,6.24
2022-12-01T04:02:48.806Z,6.12
2022-12-01T04:05:15.251Z,6.13
2022-12-01T04:07:41.695Z,6.03
2022-12-01T04:10:08.522Z,5.95
2022-12-01T04:12:34.961Z,6.06
2022-12-01T04:15:11.045Z,6.11
2022-12-01T04:17:37.711Z,6.27
2022-12-01T04:20:06.460Z,6.17
2022-12-01T04:22:33.836Z,6.11
2022-12-01T04:25:00.418Z,6.11
2022-12-01T04:27:26.742Z,6.09
2022-12-01T04:29:53.299Z,6.10
2022-12-01T04:32:19.748Z,6.10
2022-12-01T04:34:46.114Z,6.03
2022-12-01T04:37:13.031Z,6.12
2022-12-01T04:39:39.499Z,6.06
2022-12-01T04:42:05.972Z,5.98
2022-12-01T04:44:34.972Z,5.90
2022-12-01T04:47:02.667Z,5.70
2022-12-01T04:49:29.328Z,5.71
2022-12-01T04:51:55.742Z,5.79
2022-12-01T04:54:22.244Z,5.79
2022-12-01T04:56:48.792Z,5.74
2022-12-01T04:59:15.155Z,5.76
2022-12-01T05:01:41.645Z,5.83
2022-12-01T05:04:11.179Z,5.87
2022-12-01T05:06:38.078Z,5.82
2022-12-01T05:09:05.035Z,5.76
2022-12-01T05:11:32.545Z,5.78
2022-12-01T05:13:59.369Z,5.82
2022-12-01T05:16:34.303Z,5.78
2022-12-01T05:19:22.997Z,5.81
2022-12-01T05:21:50.632Z,5.90
2022-12-01T05:24:18.555Z,5.91
2022-12-01T05:26:45.442Z,5.97
2022-12-01T05:29:12.662Z,6.00
2022-12-01T05:31:39.692Z,6.11
2022-12-01T05:34:07.071Z,6.17
2022-12-01T05:36:33.531Z,6.11
2022-12-01T05:38:59.937Z,6.16
2022-12-01T05:41:26.302Z,6.16
2022-12-01T05:43:52.711Z,6.14
2022-12-01T05:46:19.203Z,6.16
2022-12-01T05:48:45.806Z,6.26
2022-12-01T05:51:14.450Z,6.20
2022-12-01T05:53:40.869Z,6.06
2022-12-01T05:56:08.252Z,6.06
2022-12-01T05:58:35.678Z,6.05
2022-12-01T06:01:02.305Z,6.10
2022-12-01T06:03:28.623Z,6.09
2022-12-01T06:05:54.985Z,6.12
2022-12-01T06:08:21.322Z,6.05
2022-12-01T06:10:47.757Z,6.01
2022-12-01T06:13:14.346Z,5.98
2022-12-01T06:15:40.685Z,5.97
2022-12-01T06:18:07.749Z,5.99
2022-12-01T06:20:34.082Z,6.01
2022-12-01T06:23:00.503Z,6.17
2022-12-01T06:25:26.841Z,6.15
2022-12-01T06:27:57.547Z,6.04
2022-12-01T06:30:24.281Z,6.16
2022-12-01T06:32:50.674Z,6.25
2022-12-01T06:35:17.216Z,6.30
2022-12-01T06:37:43.534Z,6.39
2022-12-01T06:40:10.630Z,6.24
2022-12-01T06:42:36.980Z,6.22
2022-12-01T06:45:03.469Z,6.25
2022-12-01T06:47:29.829Z,6.28
2022-12-01T06:49:56.164Z,6.15
2022-12-01T06:52:22.494Z,6.15
2022-12-01T06:54:49.141Z,6.18
2022-12-01T06:57:15.777Z,6.07
2022-12-01T06:59:42.499Z,6.07
2022-12-01T07:02:11.409Z,6.07
2022-12-01T07:04:37.810Z,6.18
2022-12-01T07:07:05.839Z,6.18
2022-12-01T07:09:32.185Z,6.07
2022-12-01T07:11:58.508Z,6.16
2022-12-01T07:14:26.672Z,6.26
2022-12-01T07:16:53.498Z,6.28
2022-12-01T07:19:20.226Z,6.29
2022-12-01T07:21:47.122Z,6.25
2022-12-01T07:24:13.979Z,6.17
2022-12-01T07:26:43.797Z,6.14
2022-12-01T07:29:11.195Z,6.27
2022-12-01T07:31:38.608Z,6.23
2022-12-01T07:34:05.821Z,6.12
2022-12-01T07:36:32.434Z,6.17
2022-12-01T07:38:58.809Z,6.20
2022-12-01T07:41:25.375Z,6.17
2022-12-01T07:43:51.784Z,6.14
2022-12-01T07:46:24.700Z,6.13
2022-12-01T07:48:52.704Z,6.17
2022-12-01T07:51:19.964Z,6.05
2022-12-01T07:53:49.124Z,6.00
2022-12-01T07:56:15.818Z,5.91
2022-12-01T07:58:42.866Z,5.85
2022-12-01T08:01:15.189Z,5.83
2022-12-01T08:03:42.231Z,5.89
2022-12-01T08:06:09.794Z,5.99
2022-12-01T08:08:38.524Z,6.08
2022-12-01T08:11:07.330Z,6.10
2022-12-01T08:13:33.938Z,5.98
2022-12-01T08:16:04.980Z,5.90
2022-12-01T08:18:34.093Z,5.87
2022-12-01T08:21:00.508Z,5.86
2022-12-01T08:23:26.863Z,5.79
2022-12-01T08:25:53.457Z,5.81
2022-12-01T08:28:20.621Z,5.90
2022-12-01T08:30:47.730Z,5.96
2022-12-01T08:33:14.210Z,5.92
2022-12-01T08:35:40.577Z,5.92
2022-12-01T08:38:06.922Z,5.90
2022-12-01T08:40:33.404Z,5.93
2022-12-01T08:43:00.035Z,5.96
2022-12-01T08:45:26.358Z,5.96
2022-12-01T08:47:58.546Z,6.09
2022-12-01T08:50:26.801Z,6.03
2022-12-01T08:52:53.377Z,6.06
2022-12-01T08:55:20.783Z,6.01
2022-12-01T08:57:47.384Z,6.08
2022-12-01T09:00:14.481Z,6.20
2022-12-01T09:02:40.855Z,6.12
2022-12-01T09:05:07.622Z,6.09
2022-12-01T09:07:34.015Z,6.10
2022-12-01T09:10:00.448Z,6.14
2022-12-01T09:12:28.896Z,6.14
2022-12-01T09:14:55.210Z,6.11
2022-12-01T09:17:21.645Z,6.14
2022-12-01T09:19:48.537Z,6.08
2022-12-01T09:22:15.072Z,5.94
2022-12-01T09:24:41.419Z,5.95
2022-12-01T09:27:09.476Z,5.95
2022-12-01T09:29:35.934Z,6.02
2022-12-01T09:32:02.267Z,6.16
2022-12-01T09:34:29.128Z,6.04
2022-12-01T09:36:57.543Z,6.06
2022-12-01T09:39:24.655Z,5.98
2022-12-01T09:42:07.685Z,6.09
2022-12-01T09:44:44.680Z,6.16
2022-12-01T09:47:18.870Z,6.08
2022-12-01T09:50:01.842Z,6.12
2022-12-01T09:52:33.469Z,6.15
2022-12-01T09:55:01.154Z,6.11
2022-12-01T09:57:38.306Z,6.12
2022-12-01T10:00:15.077Z,6.09
2022-12-01T10:03:10.689Z,5.88
2022-12-01T10:06:25.033Z,5.88
2022-12-01T10:08:44.148Z,5.98
2022-12-01T10:11:28.205Z,5.99
2022-12-01T10:13:54.588Z,6.09
2022-12-01T10:16:27.740Z,6.14
2022-12-01T10:18:59.962Z,6.16
2022-12-01T10:21:55.031Z,6.25
2022-12-01T10:24:59.115Z,6.19
2022-12-01T10:27:40.642Z,6.21
2022-12-01T10:30:15.512Z,6.27
2022-12-01T10:32:53.772Z,6.25
2022-12-01T10:35:36.905Z,6.33
2022-12-01T10:38:13.143Z,6.40
2022-12-01T10:40:42.617Z,6.44
2022-12-01T10:43:10.574Z,6.34
2022-12-01T10:45:44.086Z,6.34
2022-12-01T10:48:20.753Z,6.37
2022-12-01T10:50:50.428Z,6.52
2022-12-01T10:53:22.926Z,6.56
2022-12-01T10:56:16.913Z,6.52
2022-12-01T10:58:48.574Z,6.62
2022-12-01T11:01:20.038Z,6.65
2022-12-01T11:03:52.533Z,6.65
2022-12-01T11:06:22.791Z,6.64
2022-12-01T11:09:05.698Z,6.67
2022-12-01T11:11:40.482Z,6.75
2022-12-01T11:14:20.334Z,6.74
2022-12-01T11:16:48.901Z,6.67
2022-12-01T11:19:32.513Z,6.59
2022-12-01T11:22:01.316Z,6.52
2022-12-01T11:24:53.748Z,6.55
2022-12-01T11:27:23.154Z,6.63
2022-12-01T11:29:52.929Z,6.58
2022-12-01T11:32:26.171Z,6.60
2022-12-01T11:35:23.163Z,6.64
2022-12-01T11:38:27.903Z,6.54
2022-12-01T11:40:51.099Z,6.47
2022-12-01T11:43:26.477Z,6.55
2022-12-01T11:45:54.421Z,6.54
2022-12-01T11:48:20.815Z,6.61
2022-12-01T11:51:28.936Z,6.60
2022-12-01T11:54:12.599Z,6.73
2022-12-01T11:56:39.384Z,6.68
2022-12-01T11:59:13.883Z,6.76
2022-12-01T12:02:19.622Z,6.83
2022-12-01T12:04:53.100Z,6.80
2022-12-01T12:07:58.549Z,6.90
2022-12-01T12:10:39.243Z,6.85
2022-12-01T12:13:20.494Z,6.92
2022-12-01T12:16:10.369Z,6.89
2022-12-01T12:19:01.992Z,6.87
2022-12-01T12:21:42.056Z,6.80
2022-12-01T12:24:49.957Z,6.83
2022-12-01T12:27:41.706Z,6.79
2022-12-01T12:30:21.939Z,6.87
2022-12-01T12:33:00.414Z,6.79
2022-12-01T12:35:32.905Z,6.74
2022-12-01T12:38:23.814Z,6.77
2022-12-01T12:41:02.131Z,6.71
2022-12-01T12:43:49.974Z,6.78
2022-12-01T12:46:26.344Z,6.95
2022-12-01T12:49:25.183Z,6.91
2022-12-01T12:52:13.492Z,6.84
2022-12-01T12:54:57.501Z,6.85
2022-12-01T12:57:35.121Z,6.99
2022-12-01T13:00:13.089Z,6.92
2022-12-01T13:02:46.331Z,6.93
2022-12-01T13:05:25.167Z,6.98
2022-12-01T13:07:55.166Z,7.06
2022-12-01T13:10:47.259Z,7.28
2022-12-01T13:13:19.655Z,7.19
2022-12-01T13:15:49.121Z,6.93
2022-12-01T13:18:54.501Z,7.13
2022-12-01T13:21:22.605Z,7.17
2022-12-01T13:23:51.382Z,7.22
2022-12-01T13:26:20.585Z,7.35
2022-12-01T13:28:51.581Z,7.31
2022-12-01T13:31:20.038Z,7.37
2022-12-01T13:33:59.766Z,7.33
2022-12-01T13:39:20.168Z,7.40
2022-12-01T13:41:56.492Z,7.48
2022-12-01T13:44:26.216Z,7.40
2022-12-01T13:47:24.869Z,7.35
2022-12-01T13:49:52.853Z,7.45
2022-12-01T13:52:22.283Z,7.54
2022-12-01T13:55:10.697Z,7.52
2022-12-01T13:57:40.409Z,7.42
2022-12-01T14:00:27.191Z,7.52
2022-12-01T14:03:11.948Z,7.48
2022-12-01T14:05:53.711Z,7.40
2022-12-01T14:08:23.525Z,7.51
2022-12-01T14:11:06.957Z,7.46
2022-12-01T14:13:47.014Z,7.49
2022-12-01T14:16:13.545Z,7.52
2022-12-01T14:18:44.054Z,7.58
2022-12-01T14:21:12.540Z,7.55
2022-12-01T14:24:00.669Z,7.40
2022-12-01T14:26:29.303Z,7.37
2022-12-01T14:28:55.734Z,7.46
2022-12-01T14:31:23.574Z,7.48
2022-12-01T14:34:01.498Z,7.44
2022-12-01T14:36:36.121Z,7.48
2022-12-01T14:39:13.077Z,7.56
2022-12-01T14:41:51.018Z,7.51
2022-12-01T14:44:32.778Z,7.48
2022-12-01T14:47:13.225Z,7.55
2022-12-01T14:49:42.150Z,7.61
2022-12-01T14:52:36.431Z,7.55
2022-12-01T14:55:07.246Z,7.60
2022-12-01T14:57:39.634Z,7.52
2022-12-01T15:00:16.155Z,7.48
2022-12-01T15:02:48.382Z,7.47
2022-12-01T15:05:18.099Z,7.42
2022-12-01T15:07:48.645Z,7.35
2022-12-01T15:10:35.442Z,7.34
2022-12-01T15:13:30.606Z,7.26
2022-12-01T15:16:00.100Z,7.35
2022-12-01T15:18:32.439Z,7.36
2022-12-01T15:21:10.462Z,7.30
2022-12-01T15:23:37.269Z,7.38
2022-12-01T15:26:03.704Z,7.42
2022-12-01T15:28:35.419Z,7.41
2022-12-01T15:31:09.747Z,7.37
2022-12-01T15:33:38.903Z,7.35
2022-12-01T15:36:07.359Z,7.37
2022-12-01T15:38:37.105Z,7.26
2022-12-01T15:41:28.587Z,7.35
2022-12-01T15:43:58.505Z,7.34
2022-12-01T15:46:30.806Z,7.34
2022-12-01T15:49:08.571Z,7.40
2022-12-01T15:51:35.257Z,7.42
2022-12-01T15:54:02.622Z,7.35
2022-12-01T15:56:36.438Z,7.29
2022-12-01T15:59:09.363Z,7.34
2022-12-01T16:01:37.109Z,7.31
2022-12-01T16:04:17.169Z,7.22
2022-12-01T16:06:53.922Z,7.22
2022-12-01T16:09:27.853Z,7.23
2022-12-01T16:12:12.597Z,7.21
2022-12-01T16:14:53.380Z,7.20
2022-12-01T16:17:20.547Z,7.19
2022-12-01T16:19:46.898Z,7.08
2022-12-01T16:22:18.580Z,7.21
2022-12-01T16:24:54.524Z,7.23
2022-12-01T16:27:29.746Z,7.22
2022-12-01T16:30:02.540Z,7.08
2022-12-01T16:32:37.891Z,7.04
2022-12-01T16:35:05.740Z,7.19
2022-12-01T16:37:32.165Z,7.22
2022-12-01T16:39:58.705Z,7.29
2022-12-01T16:42:25.044Z,7.21
2022-12-01T16:44:52.372Z,7.21
2022-12-01T16:47:24.255Z,7.20
2022-12-01T16:49:51.847Z,7.18
2022-12-01T16:55:17.082Z,7.16
2022-12-01T16:57:43.604Z,7.13
2022-12-01T17:00:10.978Z,7.00
2022-12-01T17:02:37.330Z,7.02
2022-12-01T17:05:04.036Z,6.96
2022-12-01T17:07:30.403Z,6.82
2022-12-01T17:09:56.775Z,6.75
2022-12-01T17:12:26.227Z,6.83
2022-12-01T17:14:52.821Z,6.93
2022-12-01T17:17:19.227Z,6.84
2022-12-01T17:19:45.694Z,6.86
2022-12-01T17:22:12.010Z,6.90
2022-12-01T17:24:38.454Z,6.85
2022-12-01T17:27:04.891Z,6.92
2022-12-01T17:29:31.323Z,6.92
2022-12-01T17:31:57.658Z,6.87
2022-12-01T17:34:24.002Z,6.72
2022-12-01T17:36:51.594Z,6.92
2022-12-01T17:39:19.274Z,6.98
2022-12-01T17:41:45.739Z,7.04
2022-12-01T17:44:12.141Z,7.00
2022-12-01T17:46:38.804Z,6.98
2022-12-01T17:49:09.225Z,6.93
2022-12-01T17:51:36.670Z,6.94
2022-12-01T17:54:03.223Z,6.94
2022-12-01T17:56:29.536Z,6.87
2022-12-01T17:58:55.987Z,6.83
2022-12-01T18:01:26.920Z,6.84
2022-12-01T18:03:57.559Z,6.87
2022-12-01T18:06:25.427Z,6.89
2022-12-01T18:08:51.750Z,7.02
2022-12-01T18:11:18.126Z,7.09
2022-12-01T18:13:47.105Z,7.16
2022-12-01T18:16:28.899Z,7.05
2022-12-01T18:18:56.967Z,7.08
2022-12-01T18:21:24.901Z,7.02
2022-12-01T18:24:00.547Z,7.12
2022-12-01T18:26:28.330Z,7.09
2022-12-01T18:28:56.785Z,7.08
2022-12-01T18:31:23.324Z,7.14
2022-12-01T18:33:49.804Z,7.14
2022-12-01T18:36:19.356Z,7.08
2022-12-01T18:38:47.192Z,7.09
2022-12-01T18:41:14.729Z,7.06
2022-12-01T18:43:41.839Z,6.99
2022-12-01T18:46:08.643Z,6.96
2022-12-01T18:48:35.492Z,6.99
2022-12-01T18:51:06.570Z,6.84
2022-12-01T18:53:33.314Z,6.95
2022-12-01T18:56:11.680Z,6.78
2022-12-01T18:58:39.173Z,6.78
2022-12-01T19:01:21.515Z,6.92
2022-12-01T19:03:48.354Z,6.87
2022-12-01T19:06:15.158Z,6.89
2022-12-01T19:08:41.715Z,6.85
2022-12-01T19:11:08.621Z,6.82
2022-12-01T19:13:35.234Z,6.80
2022-12-01T19:16:20.241Z,6.72
2022-12-01T19:18:48.905Z,6.75
2022-12-01T19:21:17.423Z,6.80
2022-12-01T19:23:45.371Z,6.71
2022-12-01T19:26:15.169Z,6.70
2022-12-01T19:28:42.237Z,6.69
2022-12-01T19:31:11.498Z,6.72
2022-12-01T19:33:38.606Z,6.69
2022-12-01T19:36:17.287Z,6.67
2022-12-01T19:38:44.790Z,6.61
2022-12-01T19:41:12.882Z,6.67
2022-12-01T19:43:39.630Z,6.46
2022-12-01T19:46:17.836Z,6.34
2022-12-01T19:48:44.428Z,6.36
2022-12-01T19:51:19.899Z,6.40
2022-12-01T19:53:46.814Z,6.47
2022-12-01T19:56:13.323Z,6.42
2022-12-01T19:58:40.204Z,6.48
2022-12-01T20:01:09.477Z,6.32
2022-12-01T20:03:36.221Z,6.18
2022-12-01T20:06:23.994Z,6.32
2022-12-01T20:08:51.284Z,6.39
2022-12-01T20:11:18.330Z,6.40
2022-12-01T20:13:47.298Z,6.38
2022-12-01T20:16:13.663Z,6.50
2022-12-01T20:18:41.469Z,6.45
2022-12-01T20:21:09.410Z,6.60
2022-12-01T20:23:36.714Z,6.51
2022-12-01T20:26:06.204Z,6.31
2022-12-01T20:28:33.301Z,6.34
2022-12-01T20:31:13.128Z,6.26
2022-12-01T20:33:40.456Z,6.35
2022-12-01T20:36:07.827Z,6.36
2022-12-01T20:38:35.468Z,6.26
2022-12-01T20:41:02.206Z,6.21
2022-12-01T20:43:28.768Z,6.20
2022-12-01T20:45:55.451Z,6.28
2022-12-01T20:48:22.651Z,6.25
2022-12-01T20:50:49.029Z,6.19
2022-12-01T20:53:15.743Z,6.28
2022-12-01T20:55:42.552Z,6.28
2022-12-01T20:58:09.585Z,6.27
2022-12-01T21:00:38.350Z,6.38
2022-12-01T21:03:08.144Z,6.32
2022-12-01T21:05:48.374Z,6.37
2022-12-01T21:08:19.739Z,6.36
2022-12-01T21:10:52.372Z,6.52
2022-12-01T21:13:39.778Z,6.59
2022-12-01T21:16:16.464Z,6.58
2022-12-01T21:19:06.293Z,6.68
2022-12-01T21:21:37.874Z,6.73
2022-12-01T21:24:07.195Z,6.76
2022-12-01T21:26:47.775Z,6.63
2022-12-01T21:29:20.129Z,6.54
2022-12-01T21:31:49.536Z,6.57
2022-12-01T21:34:22.779Z,6.56
2022-12-01T21:36:52.299Z,6.51
2022-12-01T21:39:21.816Z,6.44
2022-12-01T21:41:50.060Z,6.39
2022-12-01T21:44:22.001Z,6.44
2022-12-01T21:46:56.312Z,6.42
2022-12-01T21:49:38.507Z,6.60
2022-12-01T21:52:22.942Z,6.67
2022-12-01T21:54:50.118Z,6.67
2022-12-01T21:57:43.322Z,6.58
2022-12-01T22:00:26.056Z,6.63
2022-12-01T22:03:12.347Z,6.67
2022-12-01T22:05:41.797Z,6.51
2022-12-01T22:08:16.895Z,6.56
2022-12-01T22:14:20.267Z,6.57
2022-12-01T22:16:56.693Z,6.72
2022-12-01T22:19:27.635Z,6.69
2022-12-01T22:22:25.239Z,6.75
2022-12-01T22:24:56.167Z,6.87
2022-12-01T22:27:27.939Z,6.96
2022-12-01T22:30:10.777Z,6.96
2022-12-01T22:32:56.576Z,6.95
2022-12-01T22:35:29.170Z,7.03
2022-12-01T22:38:09.189Z,7.04
2022-12-01T22:40:44.382Z,7.05
2022-12-01T22:43:19.953Z,7.02
2022-12-01T22:46:02.864Z,7.04
2022-12-01T22:49:01.030Z,7.06
2022-12-01T22:51:48.512Z,7.06
2022-12-01T22:54:14.817Z,7.06
2022-12-01T22:56:46.638Z,7.05
2022-12-01T22:59:24.994Z,7.10
2022-12-01T23:02:01.810Z,7.19
2022-12-01T23:05:01.673Z,7.05
2022-12-01T23:07:41.370Z,6.95
2022-12-01T23:10:15.370Z,6.89
2022-12-01T23:12:42.832Z,6.85
2022-12-01T23:15:20.065Z,6.77
2022-12-01T23:17:47.205Z,6.75
2022-12-01T23:20:19.735Z,6.78
2022-12-01T23:22:47.183Z,6.69
2022-12-01T23:25:18.878Z,6.57
2022-12-01T23:27:48.763Z,6.49
2022-12-01T23:30:19.726Z,6.58
2022-12-01T23:32:56.050Z,6.50
2022-12-01T23:35:22.482Z,6.60
2022-12-01T23:37:48.909Z,6.59
2022-12-01T23:40:26.126Z,6.48
2022-12-01T23:42:52.481Z,6.47
2022-12-01T23:45:25.877Z,6.63
2022-12-01T23:47:54.315Z,6.69
2022-12-01T23:50:26.059Z,6.66
2022-12-01T23:52:53.249Z,6.68
2022-12-01T23:55:22.910Z,6.53
2022-12-01T23:57:49.964Z,6.58
